sensor_id;sensor_type;location;lat;lon;timestamp;P1;durP1;ratioP1;P2;durP2;ratioP2
46505;SDS011;32220;49.808;9.968;2023-09-19T00:00:19;0.77;;;0.50;;
46505;SDS011;32220;49.808;9.968;2023-09-19T00:02:51;1.43;;;0.50;;
46505;SDS011;32220;49.808;9.968;2023-09-19T00:05:20;0.40;;;0.40;;
46505;SDS011;32220;49.808;9.968;2023-09-19T00:07:50;0.40;;;0.37;;
46505;SDS011;32220;49.808;9.968;2023-09-19T00:10:20;0.70;;;0.63;;
46505;SDS011;32220;49.808;9.968;2023-09-19T00:12:51;0.63;;;0.63;;
46505;SDS011;32220;49.808;9.968;2023-09-19T00:15:21;1.33;;;0.50;;
46505;SDS011;32220;49.808;9.968;2023-09-19T00:17:49;0.57;;;0.47;;
46505;SDS011;32220;49.808;9.968;2023-09-19T00:20:18;1.03;;;0.60;;
46505;SDS011;32220;49.808;9.968;2023-09-19T00:22:48;1.27;;;0.70;;
46505;SDS011;32220;49.808;9.968;2023-09-19T00:25:18;0.50;;;0.50;;
46505;SDS011;32220;49.808;9.968;2023-09-19T00:27:46;0.73;;;0.60;;
46505;SDS011;32220;49.808;9.968;2023-09-19T00:30:17;0.40;;;0.40;;
46505;SDS011;32220;49.808;9.968;2023-09-19T00:32:49;0.50;;;0.50;;
46505;SDS011;32220;49.808;9.968;2023-09-19T00:35:20;0.60;;;0.50;;
46505;SDS011;32220;49.808;9.968;2023-09-19T00:37:50;0.90;;;0.67;;
46505;SDS011;32220;49.808;9.968;2023-09-19T00:40:18;0.40;;;0.40;;
46505;SDS011;32220;49.808;9.968;2023-09-19T00:42:47;0.80;;;0.50;;
46505;SDS011;32220;49.808;9.968;2023-09-19T00:45:17;1.40;;;0.60;;
46505;SDS011;32220;49.808;9.968;2023-09-19T00:47:47;0.87;;;0.53;;
46505;SDS011;32220;49.808;9.968;2023-09-19T00:50:17;0.50;;;0.50;;
46505;SDS011;32220;49.808;9.968;2023-09-19T00:52:46;0.60;;;0.57;;
46505;SDS011;32220;49.808;9.968;2023-09-19T00:55:16;0.60;;;0.60;;
46505;SDS011;32220;49.808;9.968;2023-09-19T00:57:46;0.90;;;0.57;;
46505;SDS011;32220;49.808;9.968;2023-09-19T01:00:15;0.80;;;0.60;;
46505;SDS011;32220;49.808;9.968;2023-09-19T01:02:46;0.50;;;0.50;;
46505;SDS011;32220;49.808;9.968;2023-09-19T01:05:14;1.03;;;0.60;;
46505;SDS011;32220;49.808;9.968;2023-09-19T01:07:42;0.50;;;0.50;;
46505;SDS011;32220;49.808;9.968;2023-09-19T01:10:11;0.60;;;0.50;;
46505;SDS011;32220;49.808;9.968;2023-09-19T01:12:45;0.77;;;0.50;;
46505;SDS011;32220;49.808;9.968;2023-09-19T01:15:25;1.30;;;0.50;;
46505;SDS011;32220;49.808;9.968;2023-09-19T01:18:10;0.60;;;0.60;;
46505;SDS011;32220;49.808;9.968;2023-09-19T01:20:45;1.63;;;0.60;;
46505;SDS011;32220;49.808;9.968;2023-09-19T01:23:24;0.93;;;0.83;;
46505;SDS011;32220;49.808;9.968;2023-09-19T01:26:06;0.60;;;0.60;;
46505;SDS011;32220;49.808;9.968;2023-09-19T01:28:53;0.60;;;0.50;;
46505;SDS011;32220;49.808;9.968;2023-09-19T01:31:36;0.77;;;0.57;;
46505;SDS011;32220;49.808;9.968;2023-09-19T01:34:07;0.60;;;0.60;;
46505;SDS011;32220;49.808;9.968;2023-09-19T01:36:35;1.17;;;0.60;;
46505;SDS011;32220;49.808;9.968;2023-09-19T01:39:06;1.20;;;0.83;;
46505;SDS011;32220;49.808;9.968;2023-09-19T01:41:51;0.87;;;0.77;;
46505;SDS011;32220;49.808;9.968;2023-09-19T01:44:29;1.00;;;0.70;;
46505;SDS011;32220;49.808;9.968;2023-09-19T01:47:22;1.20;;;0.70;;
46505;SDS011;32220;49.808;9.968;2023-09-19T01:49:55;1.77;;;0.70;;
46505;SDS011;32220;49.808;9.968;2023-09-19T01:52:30;1.17;;;0.57;;
46505;SDS011;32220;49.808;9.968;2023-09-19T01:55:05;1.20;;;0.70;;
46505;SDS011;32220;49.808;9.968;2023-09-19T01:57:37;0.63;;;0.50;;
46505;SDS011;32220;49.808;9.968;2023-09-19T02:00:10;1.63;;;0.60;;
46505;SDS011;32220;49.808;9.968;2023-09-19T02:02:44;0.93;;;0.70;;
46505;SDS011;32220;49.808;9.968;2023-09-19T02:05:13;1.00;;;0.63;;
46505;SDS011;32220;49.808;9.968;2023-09-19T02:07:49;0.97;;;0.70;;
46505;SDS011;32220;49.808;9.968;2023-09-19T02:10:17;1.23;;;0.70;;
46505;SDS011;32220;49.808;9.968;2023-09-19T02:12:45;2.37;;;1.00;;
46505;SDS011;32220;49.808;9.968;2023-09-19T02:15:13;0.67;;;0.63;;
46505;SDS011;32220;49.808;9.968;2023-09-19T02:17:43;1.07;;;0.80;;
46505;SDS011;32220;49.808;9.968;2023-09-19T02:20:12;1.87;;;0.90;;
46505;SDS011;32220;49.808;9.968;2023-09-19T02:22:40;0.83;;;0.80;;
46505;SDS011;32220;49.808;9.968;2023-09-19T02:25:08;0.60;;;0.60;;
46505;SDS011;32220;49.808;9.968;2023-09-19T02:27:36;0.83;;;0.80;;
46505;SDS011;32220;49.808;9.968;2023-09-19T02:30:04;1.40;;;0.87;;
46505;SDS011;32220;49.808;9.968;2023-09-19T02:32:32;1.00;;;0.83;;
46505;SDS011;32220;49.808;9.968;2023-09-19T02:35:07;1.23;;;0.80;;
46505;SDS011;32220;49.808;9.968;2023-09-19T02:37:37;0.70;;;0.60;;
46505;SDS011;32220;49.808;9.968;2023-09-19T02:40:05;0.70;;;0.70;;
46505;SDS011;32220;49.808;9.968;2023-09-19T02:42:44;1.90;;;0.87;;
46505;SDS011;32220;49.808;9.968;2023-09-19T02:45:15;0.80;;;0.80;;
46505;SDS011;32220;49.808;9.968;2023-09-19T02:47:45;1.17;;;1.07;;
46505;SDS011;32220;49.808;9.968;2023-09-19T02:50:16;1.27;;;0.90;;
46505;SDS011;32220;49.808;9.968;2023-09-19T07:00:11;2.03;;;1.93;;
46505;SDS011;32220;49.808;9.968;2023-09-19T07:02:45;3.07;;;1.90;;
46505;SDS011;32220;49.808;9.968;2023-09-19T07:05:12;2.80;;;1.73;;
46505;SDS011;32220;49.808;9.968;2023-09-19T07:07:40;1.60;;;1.50;;
46505;SDS011;32220;49.808;9.968;2023-09-19T07:10:08;2.13;;;1.60;;
46505;SDS011;32220;49.808;9.968;2023-09-19T07:12:37;1.50;;;1.20;;
46505;SDS011;32220;49.808;9.968;2023-09-19T07:15:05;2.17;;;1.40;;
46505;SDS011;32220;49.808;9.968;2023-09-19T07:17:34;1.57;;;1.10;;
46505;SDS011;32220;49.808;9.968;2023-09-19T07:20:02;1.77;;;1.20;;
46505;SDS011;32220;49.808;9.968;2023-09-19T07:22:33;1.90;;;1.60;;
46505;SDS011;32220;49.808;9.968;2023-09-19T07:25:02;2.17;;;1.73;;
46505;SDS011;32220;49.808;9.968;2023-09-19T07:27:30;2.17;;;1.33;;
46505;SDS011;32220;49.808;9.968;2023-09-19T07:29:58;2.63;;;1.40;;
46505;SDS011;32220;49.808;9.968;2023-09-19T07:32:25;1.53;;;1.40;;
46505;SDS011;32220;49.808;9.968;2023-09-19T07:34:54;2.10;;;1.40;;
46505;SDS011;32220;49.808;9.968;2023-09-19T07:37:22;1.83;;;1.37;;
46505;SDS011;32220;49.808;9.968;2023-09-19T07:39:51;1.77;;;1.30;;
46505;SDS011;32220;49.808;9.968;2023-09-19T07:42:19;1.70;;;1.40;;
46505;SDS011;32220;49.808;9.968;2023-09-19T07:44:47;2.03;;;1.63;;
46505;SDS011;32220;49.808;9.968;2023-09-19T07:47:16;2.23;;;1.50;;
46505;SDS011;32220;49.808;9.968;2023-09-19T07:49:46;2.23;;;1.53;;
46505;SDS011;32220;49.808;9.968;2023-09-19T07:52:16;1.50;;;1.40;;
46505;SDS011;32220;49.808;9.968;2023-09-19T07:54:43;2.00;;;1.37;;
46505;SDS011;32220;49.808;9.968;2023-09-19T07:57:11;1.70;;;1.43;;
46505;SDS011;32220;49.808;9.968;2023-09-19T07:59:38;2.47;;;1.70;;
46505;SDS011;32220;49.808;9.968;2023-09-19T08:02:08;2.83;;;1.50;;
46505;SDS011;32220;49.808;9.968;2023-09-19T08:04:42;2.23;;;1.60;;
46505;SDS011;32220;49.808;9.968;2023-09-19T08:07:09;2.07;;;1.83;;
46505;SDS011;32220;49.808;9.968;2023-09-19T08:09:41;1.70;;;1.37;;
46505;SDS011;32220;49.808;9.968;2023-09-19T08:12:12;2.90;;;1.83;;
46505;SDS011;32220;49.808;9.968;2023-09-19T08:14:40;3.30;;;1.63;;
46505;SDS011;32220;49.808;9.968;2023-09-19T08:17:08;2.57;;;1.30;;
46505;SDS011;32220;49.808;9.968;2023-09-19T08:19:36;1.87;;;1.53;;
46505;SDS011;32220;49.808;9.968;2023-09-19T08:22:10;1.53;;;1.40;;
46505;SDS011;32220;49.808;9.968;2023-09-19T08:24:38;2.63;;;1.70;;
46505;SDS011;32220;49.808;9.968;2023-09-19T08:27:07;2.90;;;1.63;;
46505;SDS011;32220;49.808;9.968;2023-09-19T08:29:36;3.40;;;1.50;;
46505;SDS011;32220;49.808;9.968;2023-09-19T08:32:04;1.77;;;1.50;;
46505;SDS011;32220;49.808;9.968;2023-09-19T08:34:32;1.63;;;1.53;;
46505;SDS011;32220;49.808;9.968;2023-09-19T08:37:00;2.43;;;1.40;;
46505;SDS011;32220;49.808;9.968;2023-09-19T08:39:27;1.37;;;1.27;;
46505;SDS011;32220;49.808;9.968;2023-09-19T08:41:57;3.53;;;1.60;;
46505;SDS011;32220;49.808;9.968;2023-09-19T08:44:29;1.67;;;1.20;;
46505;SDS011;32220;49.808;9.968;2023-09-19T08:47:00;2.30;;;1.30;;
46505;SDS011;32220;49.808;9.968;2023-09-19T08:49:37;1.37;;;1.10;;
46505;SDS011;32220;49.808;9.968;2023-09-19T08:52:10;2.87;;;1.20;;
46505;SDS011;32220;49.808;9.968;2023-09-19T08:54:47;1.30;;;1.20;;
46505;SDS011;32220;49.808;9.968;2023-09-19T08:57:18;1.70;;;1.20;;
46505;SDS011;32220;49.808;9.968;2023-09-19T08:59:49;3.33;;;1.07;;
46505;SDS011;32220;49.808;9.968;2023-09-19T09:02:21;2.00;;;1.43;;
46505;SDS011;32220;49.808;9.968;2023-09-19T09:04:51;1.93;;;1.20;;
46505;SDS011;32220;49.808;9.968;2023-09-19T09:07:20;2.40;;;1.10;;
46505;SDS011;32220;49.808;9.968;2023-09-19T09:09:49;2.10;;;1.40;;
46505;SDS011;32220;49.808;9.968;2023-09-19T09:12:16;5.37;;;1.50;;
46505;SDS011;32220;49.808;9.968;2023-09-19T09:14:44;2.60;;;1.20;;
46505;SDS011;32220;49.808;9.968;2023-09-19T09:17:17;2.10;;;1.30;;
46505;SDS011;32220;49.808;9.968;2023-09-19T09:19:46;1.63;;;1.03;;
46505;SDS011;32220;49.808;9.968;2023-09-19T09:22:13;1.23;;;1.13;;
46505;SDS011;32220;49.808;9.968;2023-09-19T09:24:50;3.33;;;1.40;;
46505;SDS011;32220;49.808;9.968;2023-09-19T09:27:20;3.50;;;1.37;;
46505;SDS011;32220;49.808;9.968;2023-09-19T09:29:50;1.13;;;1.00;;
46505;SDS011;32220;49.808;9.968;2023-09-19T09:32:25;1.93;;;1.13;;
46505;SDS011;32220;49.808;9.968;2023-09-19T09:34:55;1.30;;;1.03;;
46505;SDS011;32220;49.808;9.968;2023-09-19T09:37:26;1.67;;;1.27;;
46505;SDS011;32220;49.808;9.968;2023-09-19T09:39:57;1.27;;;1.10;;
46505;SDS011;32220;49.808;9.968;2023-09-19T09:42:44;2.17;;;1.37;;
46505;SDS011;32220;49.808;9.968;2023-09-19T09:45:13;1.47;;;1.20;;
46505;SDS011;32220;49.808;9.968;2023-09-19T09:47:44;1.80;;;1.30;;
46505;SDS011;32220;49.808;9.968;2023-09-19T09:50:26;1.90;;;1.27;;
46505;SDS011;32220;49.808;9.968;2023-09-19T09:53:20;3.70;;;1.33;;
46505;SDS011;32220;49.808;9.968;2023-09-19T09:55:57;1.43;;;1.30;;
46505;SDS011;32220;49.808;9.968;2023-09-19T09:58:26;2.27;;;1.40;;
46505;SDS011;32220;49.808;9.968;2023-09-19T10:00:56;1.40;;;1.30;;
46505;SDS011;32220;49.808;9.968;2023-09-19T10:03:32;2.80;;;1.50;;
46505;SDS011;32220;49.808;9.968;2023-09-19T10:06:09;1.30;;;1.20;;
46505;SDS011;32220;49.808;9.968;2023-09-19T10:09:00;1.47;;;1.30;;
46505;SDS011;32220;49.808;9.968;2023-09-19T10:11:38;2.93;;;1.40;;
46505;SDS011;32220;49.808;9.968;2023-09-19T10:14:09;2.20;;;1.20;;
46505;SDS011;32220;49.808;9.968;2023-09-19T10:16:40;2.63;;;1.30;;
46505;SDS011;32220;49.808;9.968;2023-09-19T10:19:16;1.23;;;1.03;;
46505;SDS011;32220;49.808;9.968;2023-09-19T10:21:50;1.77;;;1.40;;
46505;SDS011;32220;49.808;9.968;2023-09-19T10:24:22;2.63;;;1.70;;
46505;SDS011;32220;49.808;9.968;2023-09-19T10:26:53;1.73;;;1.53;;
46505;SDS011;32220;49.808;9.968;2023-09-19T10:29:22;1.40;;;1.10;;
46505;SDS011;32220;49.808;9.968;2023-09-19T10:31:52;1.80;;;1.20;;
46505;SDS011;32220;49.808;9.968;2023-09-19T10:34:21;1.50;;;1.40;;
46505;SDS011;32220;49.808;9.968;2023-09-19T10:36:50;1.30;;;1.17;;
46505;SDS011;32220;49.808;9.968;2023-09-19T10:39:19;1.52;;;1.20;;
46505;SDS011;32220;49.808;9.968;2023-09-19T10:41:53;1.23;;;1.13;;
46505;SDS011;32220;49.808;9.968;2023-09-19T10:44:25;1.20;;;1.10;;
46505;SDS011;32220;49.808;9.968;2023-09-19T10:46:54;1.80;;;1.17;;
46505;SDS011;32220;49.808;9.968;2023-09-19T10:49:24;2.37;;;1.47;;
46505;SDS011;32220;49.808;9.968;2023-09-19T10:51:52;2.67;;;1.50;;
46505;SDS011;32220;49.808;9.968;2023-09-19T10:54:27;1.53;;;1.20;;
46505;SDS011;32220;49.808;9.968;2023-09-19T10:57:03;3.20;;;1.67;;
46505;SDS011;32220;49.808;9.968;2023-09-19T10:59:31;1.30;;;1.20;;
46505;SDS011;32220;49.808;9.968;2023-09-19T11:02:15;1.77;;;1.47;;
46505;SDS011;32220;49.808;9.968;2023-09-19T11:04:45;1.90;;;1.20;;
46505;SDS011;32220;49.808;9.968;2023-09-19T11:07:17;1.67;;;1.53;;
46505;SDS011;32220;49.808;9.968;2023-09-19T11:09:45;1.40;;;1.30;;
46505;SDS011;32220;49.808;9.968;2023-09-19T11:21:40;1.47;;;1.20;;
46505;SDS011;32220;49.808;9.968;2023-09-19T11:24:29;4.47;;;1.47;;
46505;SDS011;32220;49.808;9.968;2023-09-19T11:27:12;1.73;;;1.30;;
46505;SDS011;32220;49.808;9.968;2023-09-19T11:29:43;1.20;;;1.10;;
46505;SDS011;32220;49.808;9.968;2023-09-19T11:32:11;1.63;;;1.30;;
46505;SDS011;32220;49.808;9.968;2023-09-19T11:34:40;1.67;;;1.30;;
46505;SDS011;32220;49.808;9.968;2023-09-19T11:40:27;1.40;;;1.30;;
46505;SDS011;32220;49.808;9.968;2023-09-19T11:42:56;2.07;;;1.30;;
46505;SDS011;32220;49.808;9.968;2023-09-19T11:48:28;1.40;;;1.30;;
46505;SDS011;32220;49.808;9.968;2023-09-19T11:50:57;1.67;;;1.20;;
46505;SDS011;32220;49.808;9.968;2023-09-19T11:53:31;1.57;;;1.23;;
46505;SDS011;32220;49.808;9.968;2023-09-19T11:56:06;1.47;;;1.37;;
46505;SDS011;32220;49.808;9.968;2023-09-19T11:58:36;2.27;;;1.47;;
46505;SDS011;32220;49.808;9.968;2023-09-19T12:01:08;2.27;;;1.70;;
46505;SDS011;32220;49.808;9.968;2023-09-19T12:03:47;1.30;;;1.20;;
46505;SDS011;32220;49.808;9.968;2023-09-19T12:06:20;1.20;;;1.10;;
46505;SDS011;32220;49.808;9.968;2023-09-19T12:08:47;1.20;;;1.10;;
46505;SDS011;32220;49.808;9.968;2023-09-19T12:11:21;1.50;;;1.40;;
46505;SDS011;32220;49.808;9.968;2023-09-19T12:13:55;1.20;;;1.10;;
46505;SDS011;32220;49.808;9.968;2023-09-19T12:16:28;1.23;;;1.02;;
46505;SDS011;32220;49.808;9.968;2023-09-19T12:18:57;1.08;;;0.98;;
46505;SDS011;32220;49.808;9.968;2023-09-19T12:21:28;1.00;;;1.00;;
46505;SDS011;32220;49.808;9.968;2023-09-19T12:24:03;3.83;;;1.05;;
46505;SDS011;32220;49.808;9.968;2023-09-19T12:26:43;1.13;;;0.90;;
46505;SDS011;32220;49.808;9.968;2023-09-19T12:29:14;1.58;;;1.10;;
46505;SDS011;32220;49.808;9.968;2023-09-19T12:31:50;2.33;;;1.30;;
46505;SDS011;32220;49.808;9.968;2023-09-19T12:34:21;0.90;;;0.90;;
46505;SDS011;32220;49.808;9.968;2023-09-19T12:37:05;1.80;;;1.00;;
46505;SDS011;32220;49.808;9.968;2023-09-19T12:39:38;3.17;;;1.25;;
46505;SDS011;32220;49.808;9.968;2023-09-19T12:42:10;2.20;;;1.40;;
46505;SDS011;32220;49.808;9.968;2023-09-19T12:44:40;1.00;;;1.00;;
46505;SDS011;32220;49.808;9.968;2023-09-19T12:47:11;3.45;;;1.10;;
46505;SDS011;32220;49.808;9.968;2023-09-19T12:52:43;1.30;;;1.15;;
46505;SDS011;32220;49.808;9.968;2023-09-19T12:55:19;1.77;;;1.33;;
46505;SDS011;32220;49.808;9.968;2023-09-19T12:57:59;1.63;;;1.30;;
46505;SDS011;32220;49.808;9.968;2023-09-19T13:00:32;1.88;;;1.10;;
46505;SDS011;32220;49.808;9.968;2023-09-19T13:03:14;2.92;;;1.23;;
46505;SDS011;32220;49.808;9.968;2023-09-19T13:05:49;2.35;;;1.25;;
46505;SDS011;32220;49.808;9.968;2023-09-19T13:08:18;1.63;;;1.10;;
46505;SDS011;32220;49.808;9.968;2023-09-19T13:11:07;1.00;;;0.90;;
46505;SDS011;32220;49.808;9.968;2023-09-19T13:13:42;1.07;;;1.07;;
46505;SDS011;32220;49.808;9.968;2023-09-19T13:16:12;1.83;;;1.30;;
46505;SDS011;32220;49.808;9.968;2023-09-19T13:18:46;1.23;;;1.03;;
46505;SDS011;32220;49.808;9.968;2023-09-19T13:21:17;1.10;;;1.00;;
46505;SDS011;32220;49.808;9.968;2023-09-19T13:23:54;1.30;;;1.20;;
46505;SDS011;32220;49.808;9.968;2023-09-19T13:26:25;1.73;;;1.20;;
46505;SDS011;32220;49.808;9.968;2023-09-19T13:28:55;1.17;;;1.05;;
46505;SDS011;32220;49.808;9.968;2023-09-19T13:31:23;1.20;;;1.10;;
46505;SDS011;32220;49.808;9.968;2023-09-19T13:33:51;2.13;;;1.15;;
46505;SDS011;32220;49.808;9.968;2023-09-19T13:36:18;1.27;;;0.90;;
46505;SDS011;32220;49.808;9.968;2023-09-19T13:38:46;2.20;;;1.40;;
46505;SDS011;32220;49.808;9.968;2023-09-19T13:41:15;1.53;;;1.27;;
46505;SDS011;32220;49.808;9.968;2023-09-19T13:43:43;1.00;;;1.00;;
46505;SDS011;32220;49.808;9.968;2023-09-19T13:46:15;1.53;;;1.17;;
46505;SDS011;32220;49.808;9.968;2023-09-19T13:48:43;1.03;;;0.97;;
46505;SDS011;32220;49.808;9.968;2023-09-19T13:51:11;1.20;;;1.10;;
46505;SDS011;32220;49.808;9.968;2023-09-19T13:53:39;2.17;;;1.25;;
46505;SDS011;32220;49.808;9.968;2023-09-19T13:56:06;2.10;;;1.00;;
46505;SDS011;32220;49.808;9.968;2023-09-19T13:58:34;1.40;;;0.90;;
46505;SDS011;32220;49.808;9.968;2023-09-19T14:01:02;1.73;;;1.27;;
46505;SDS011;32220;49.808;9.968;2023-09-19T14:03:31;1.40;;;1.30;;
46505;SDS011;32220;49.808;9.968;2023-09-19T14:05:58;1.47;;;1.17;;
46505;SDS011;32220;49.808;9.968;2023-09-19T14:08:26;1.30;;;1.20;;
46505;SDS011;32220;49.808;9.968;2023-09-19T14:10:53;1.13;;;1.03;;
46505;SDS011;32220;49.808;9.968;2023-09-19T14:13:21;1.40;;;1.20;;
46505;SDS011;32220;49.808;9.968;2023-09-19T14:15:48;1.63;;;1.23;;
46505;SDS011;32220;49.808;9.968;2023-09-19T14:18:16;1.80;;;1.27;;
46505;SDS011;32220;49.808;9.968;2023-09-19T14:20:46;2.00;;;1.10;;
46505;SDS011;32220;49.808;9.968;2023-09-19T14:23:14;2.53;;;1.50;;
46505;SDS011;32220;49.808;9.968;2023-09-19T14:25:41;0.90;;;0.90;;
46505;SDS011;32220;49.808;9.968;2023-09-19T14:28:09;1.53;;;1.40;;
46505;SDS011;32220;49.808;9.968;2023-09-19T14:30:36;2.63;;;1.20;;
46505;SDS011;32220;49.808;9.968;2023-09-19T14:33:04;1.50;;;1.17;;
46505;SDS011;32220;49.808;9.968;2023-09-19T14:35:33;2.57;;;1.13;;
46505;SDS011;32220;49.808;9.968;2023-09-19T14:38:05;2.37;;;1.30;;
46505;SDS011;32220;49.808;9.968;2023-09-19T14:40:33;1.20;;;1.10;;
46505;SDS011;32220;49.808;9.968;2023-09-19T14:43:02;1.60;;;1.10;;
46505;SDS011;32220;49.808;9.968;2023-09-19T14:45:30;4.13;;;1.37;;
46505;SDS011;32220;49.808;9.968;2023-09-19T14:47:57;1.40;;;1.20;;
46505;SDS011;32220;49.808;9.968;2023-09-19T14:50:24;1.77;;;1.10;;
46505;SDS011;32220;49.808;9.968;2023-09-19T14:52:52;1.20;;;0.90;;
46505;SDS011;32220;49.808;9.968;2023-09-19T14:55:21;2.03;;;1.13;;
46505;SDS011;32220;49.808;9.968;2023-09-19T14:57:49;2.13;;;1.10;;
46505;SDS011;32220;49.808;9.968;2023-09-19T15:00:17;2.73;;;1.20;;
46505;SDS011;32220;49.808;9.968;2023-09-19T15:02:47;1.20;;;1.10;;
46505;SDS011;32220;49.808;9.968;2023-09-19T15:05:16;1.20;;;1.00;;
46505;SDS011;32220;49.808;9.968;2023-09-19T15:07:43;2.17;;;1.40;;
46505;SDS011;32220;49.808;9.968;2023-09-19T15:10:11;2.13;;;1.00;;
46505;SDS011;32220;49.808;9.968;2023-09-19T15:12:40;1.30;;;0.90;;
46505;SDS011;32220;49.808;9.968;2023-09-19T15:15:08;2.10;;;0.93;;
46505;SDS011;32220;49.808;9.968;2023-09-19T15:17:36;1.77;;;1.10;;
46505;SDS011;32220;49.808;9.968;2023-09-19T15:20:04;0.80;;;0.67;;
46505;SDS011;32220;49.808;9.968;2023-09-19T15:22:33;1.53;;;1.27;;
46505;SDS011;32220;49.808;9.968;2023-09-19T15:25:01;1.87;;;1.07;;
46505;SDS011;32220;49.808;9.968;2023-09-19T15:27:30;1.37;;;1.13;;
46505;SDS011;32220;49.808;9.968;2023-09-19T15:30:00;1.17;;;0.70;;
46505;SDS011;32220;49.808;9.968;2023-09-19T15:32:28;2.70;;;1.10;;
46505;SDS011;32220;49.808;9.968;2023-09-19T15:34:56;1.40;;;1.10;;
46505;SDS011;32220;49.808;9.968;2023-09-19T15:37:24;1.10;;;0.80;;
46505;SDS011;32220;49.808;9.968;2023-09-19T15:39:51;1.40;;;1.13;;
46505;SDS011;32220;49.808;9.968;2023-09-19T15:42:20;0.60;;;0.60;;
46505;SDS011;32220;49.808;9.968;2023-09-19T15:44:48;1.33;;;1.10;;
46505;SDS011;32220;49.808;9.968;2023-09-19T15:47:18;1.40;;;1.03;;
46505;SDS011;32220;49.808;9.968;2023-09-19T15:49:46;0.80;;;0.80;;
46505;SDS011;32220;49.808;9.968;2023-09-19T15:52:16;1.77;;;1.00;;
46505;SDS011;32220;49.808;9.968;2023-09-19T15:54:44;1.30;;;1.20;;
46505;SDS011;32220;49.808;9.968;2023-09-19T15:57:12;0.80;;;0.63;;
46505;SDS011;32220;49.808;9.968;2023-09-19T15:59:40;0.87;;;0.83;;
46505;SDS011;32220;49.808;9.968;2023-09-19T16:02:07;2.50;;;0.90;;
46505;SDS011;32220;49.808;9.968;2023-09-19T16:04:36;1.43;;;0.83;;
46505;SDS011;32220;49.808;9.968;2023-09-19T16:07:04;1.77;;;1.10;;
46505;SDS011;32220;49.808;9.968;2023-09-19T16:09:33;1.00;;;0.73;;
46505;SDS011;32220;49.808;9.968;2023-09-19T16:12:01;1.40;;;0.70;;
46505;SDS011;32220;49.808;9.968;2023-09-19T16:14:29;2.57;;;0.90;;
46505;SDS011;32220;49.808;9.968;2023-09-19T16:16:57;1.53;;;1.20;;
46505;SDS011;32220;49.808;9.968;2023-09-19T16:19:25;1.77;;;0.90;;
46505;SDS011;32220;49.808;9.968;2023-09-19T16:21:54;1.23;;;1.00;;
46505;SDS011;32220;49.808;9.968;2023-09-19T16:24:22;1.27;;;1.00;;
46505;SDS011;32220;49.808;9.968;2023-09-19T16:26:50;1.33;;;1.10;;
46505;SDS011;32220;49.808;9.968;2023-09-19T16:29:18;2.37;;;0.90;;
46505;SDS011;32220;49.808;9.968;2023-09-19T16:31:47;1.77;;;0.83;;
46505;SDS011;32220;49.808;9.968;2023-09-19T16:34:15;0.83;;;0.77;;
46505;SDS011;32220;49.808;9.968;2023-09-19T16:36:43;0.70;;;0.60;;
46505;SDS011;32220;49.808;9.968;2023-09-19T16:39:12;1.00;;;0.90;;
46505;SDS011;32220;49.808;9.968;2023-09-19T16:41:39;0.80;;;0.80;;
46505;SDS011;32220;49.808;9.968;2023-09-19T16:44:07;1.07;;;0.80;;
46505;SDS011;32220;49.808;9.968;2023-09-19T16:46:35;1.27;;;0.97;;
46505;SDS011;32220;49.808;9.968;2023-09-19T16:49:03;0.70;;;0.70;;
46505;SDS011;32220;49.808;9.968;2023-09-19T16:51:31;1.10;;;0.90;;
46505;SDS011;32220;49.808;9.968;2023-09-19T16:53:59;1.10;;;1.00;;
46505;SDS011;32220;49.808;9.968;2023-09-19T16:56:28;2.07;;;1.07;;
46505;SDS011;32220;49.808;9.968;2023-09-19T16:58:58;2.03;;;1.10;;
46505;SDS011;32220;49.808;9.968;2023-09-19T17:01:27;1.10;;;0.87;;
46505;SDS011;32220;49.808;9.968;2023-09-19T17:03:54;2.87;;;1.23;;
46505;SDS011;32220;49.808;9.968;2023-09-19T17:06:23;1.40;;;0.90;;
46505;SDS011;32220;49.808;9.968;2023-09-19T17:08:51;2.80;;;1.23;;
46505;SDS011;32220;49.808;9.968;2023-09-19T17:11:18;1.47;;;0.83;;
46505;SDS011;32220;49.808;9.968;2023-09-19T17:13:50;0.87;;;0.60;;
46505;SDS011;32220;49.808;9.968;2023-09-19T17:16:19;0.93;;;0.90;;
46505;SDS011;32220;49.808;9.968;2023-09-19T17:18:49;3.27;;;0.80;;
46505;SDS011;32220;49.808;9.968;2023-09-19T17:21:18;0.80;;;0.80;;
46505;SDS011;32220;49.808;9.968;2023-09-19T17:23:46;2.63;;;0.80;;
46505;SDS011;32220;49.808;9.968;2023-09-19T17:26:14;2.53;;;1.07;;
46505;SDS011;32220;49.808;9.968;2023-09-19T17:28:43;1.13;;;0.60;;
46505;SDS011;32220;49.808;9.968;2023-09-19T17:31:13;0.93;;;0.87;;
46505;SDS011;32220;49.808;9.968;2023-09-19T17:33:42;0.93;;;0.70;;
46505;SDS011;32220;49.808;9.968;2023-09-19T17:36:11;0.60;;;0.60;;
46505;SDS011;32220;49.808;9.968;2023-09-19T17:38:41;1.03;;;0.70;;
46505;SDS011;32220;49.808;9.968;2023-09-19T17:41:09;1.93;;;0.63;;
46505;SDS011;32220;49.808;9.968;2023-09-19T17:43:38;1.17;;;0.87;;
46505;SDS011;32220;49.808;9.968;2023-09-19T17:46:09;4.07;;;1.20;;
46505;SDS011;32220;49.808;9.968;2023-09-19T17:48:40;1.60;;;0.90;;
46505;SDS011;32220;49.808;9.968;2023-09-19T17:51:09;1.90;;;0.83;;
46505;SDS011;32220;49.808;9.968;2023-09-19T17:53:37;0.80;;;0.80;;
46505;SDS011;32220;49.808;9.968;2023-09-19T17:56:06;0.80;;;0.80;;
46505;SDS011;32220;49.808;9.968;2023-09-19T17:58:35;2.20;;;0.80;;
46505;SDS011;32220;49.808;9.968;2023-09-19T18:01:07;1.30;;;0.87;;
46505;SDS011;32220;49.808;9.968;2023-09-19T18:03:36;0.90;;;0.90;;
46505;SDS011;32220;49.808;9.968;2023-09-19T18:06:05;1.13;;;0.70;;
46505;SDS011;32220;49.808;9.968;2023-09-19T18:08:33;1.20;;;0.80;;
46505;SDS011;32220;49.808;9.968;2023-09-19T18:11:00;0.80;;;0.80;;
46505;SDS011;32220;49.808;9.968;2023-09-19T18:13:28;0.80;;;0.80;;
46505;SDS011;32220;49.808;9.968;2023-09-19T18:15:56;1.27;;;0.77;;
46505;SDS011;32220;49.808;9.968;2023-09-19T18:18:26;1.10;;;1.00;;
46505;SDS011;32220;49.808;9.968;2023-09-19T18:20:53;1.37;;;0.97;;
46505;SDS011;32220;49.808;9.968;2023-09-19T18:23:22;0.83;;;0.83;;
46505;SDS011;32220;49.808;9.968;2023-09-19T18:25:55;1.17;;;0.80;;
46505;SDS011;32220;49.808;9.968;2023-09-19T18:28:22;1.00;;;0.90;;
46505;SDS011;32220;49.808;9.968;2023-09-19T18:30:50;1.23;;;0.90;;
46505;SDS011;32220;49.808;9.968;2023-09-19T18:33:18;1.10;;;0.90;;
46505;SDS011;32220;49.808;9.968;2023-09-19T18:35:46;0.90;;;0.90;;
46505;SDS011;32220;49.808;9.968;2023-09-19T18:38:14;2.33;;;1.07;;
46505;SDS011;32220;49.808;9.968;2023-09-19T18:40:43;1.50;;;0.73;;
46505;SDS011;32220;49.808;9.968;2023-09-19T18:43:11;1.50;;;0.90;;
46505;SDS011;32220;49.808;9.968;2023-09-19T18:45:38;2.40;;;1.00;;
46505;SDS011;32220;49.808;9.968;2023-09-19T18:48:06;1.50;;;0.80;;
46505;SDS011;32220;49.808;9.968;2023-09-19T18:50:34;0.73;;;0.70;;
46505;SDS011;32220;49.808;9.968;2023-09-19T18:53:02;1.33;;;0.97;;
46505;SDS011;32220;49.808;9.968;2023-09-19T18:55:30;0.83;;;0.70;;
46505;SDS011;32220;49.808;9.968;2023-09-19T18:57:59;0.80;;;0.60;;
46505;SDS011;32220;49.808;9.968;2023-09-19T19:00:27;1.07;;;0.80;;
46505;SDS011;32220;49.808;9.968;2023-09-19T19:02:54;1.83;;;0.90;;
46505;SDS011;32220;49.808;9.968;2023-09-19T19:05:22;0.90;;;0.90;;
46505;SDS011;32220;49.808;9.968;2023-09-19T19:07:50;0.93;;;0.73;;
46505;SDS011;32220;49.808;9.968;2023-09-19T19:10:17;1.27;;;0.63;;
46505;SDS011;32220;49.808;9.968;2023-09-19T19:12:45;1.80;;;1.03;;
46505;SDS011;32220;49.808;9.968;2023-09-19T19:15:14;0.80;;;0.80;;
46505;SDS011;32220;49.808;9.968;2023-09-19T19:17:42;0.83;;;0.60;;
46505;SDS011;32220;49.808;9.968;2023-09-19T19:20:10;0.77;;;0.70;;
46505;SDS011;32220;49.808;9.968;2023-09-19T19:22:40;1.47;;;0.80;;
46505;SDS011;32220;49.808;9.968;2023-09-19T19:25:09;1.13;;;0.93;;
46505;SDS011;32220;49.808;9.968;2023-09-19T19:27:37;1.50;;;0.90;;
46505;SDS011;32220;49.808;9.968;2023-09-19T19:30:05;0.83;;;0.83;;
46505;SDS011;32220;49.808;9.968;2023-09-19T19:32:35;1.13;;;0.87;;